sensor_id;sensor_type;location;lat;lon;timestamp;temperature;humidity
39751;DHT22;37579;51.074;17.004;2022-11-15T00:00:34;23.90;63.10
39751;DHT22;37579;51.074;17.004;2022-11-15T00:03:21;23.90;63.30
39751;DHT22;37579;51.074;17.004;2022-11-15T00:06:06;23.80;63.40
39751;DHT22;37579;51.074;17.004;2022-11-15T00:08:50;23.80;63.40
39751;DHT22;37579;51.074;17.004;2022-11-15T00:11:34;23.80;63.50
39751;DHT22;37579;51.074;17.004;2022-11-15T00:14:18;23.80;63.60
39751;DHT22;37579;51.074;17.004;2022-11-15T00:17:02;23.80;63.50
39751;DHT22;37579;51.074;17.004;2022-11-15T00:19:46;23.80;63.70
39751;DHT22;37579;51.074;17.004;2022-11-15T00:22:33;23.70;63.80
39751;DHT22;37579;51.074;17.004;2022-11-15T00:25:17;23.60;63.90
39751;DHT22;37579;51.074;17.004;2022-11-15T00:28:02;23.70;63.90
39751;DHT22;37579;51.074;17.004;2022-11-15T00:30:47;23.60;63.90
39751;DHT22;37579;51.074;17.004;2022-11-15T00:33:31;23.60;64.10
39751;DHT22;37579;51.074;17.004;2022-11-15T00:36:16;23.70;64.10
39751;DHT22;37579;51.074;17.004;2022-11-15T00:39:00;23.60;64.10
39751;DHT22;37579;51.074;17.004;2022-11-15T00:41:44;23.60;64.20
39751;DHT22;37579;51.074;17.004;2022-11-15T00:44:28;23.50;64.20
39751;DHT22;37579;51.074;17.004;2022-11-15T00:47:12;23.60;64.20
39751;DHT22;37579;51.074;17.004;2022-11-15T00:49:57;23.50;64.20
39751;DHT22;37579;51.074;17.004;2022-11-15T00:52:42;23.50;64.30
39751;DHT22;37579;51.074;17.004;2022-11-15T00:55:26;23.50;64.20
39751;DHT22;37579;51.074;17.004;2022-11-15T00:58:10;23.60;64.30
39751;DHT22;37579;51.074;17.004;2022-11-15T01:00:54;23.50;64.30
39751;DHT22;37579;51.074;17.004;2022-11-15T01:03:40;23.50;64.30
39751;DHT22;37579;51.074;17.004;2022-11-15T01:06:24;23.50;64.30
39751;DHT22;37579;51.074;17.004;2022-11-15T01:09:08;23.50;64.30
39751;DHT22;37579;51.074;17.004;2022-11-15T01:11:52;23.50;64.30
39751;DHT22;37579;51.074;17.004;2022-11-15T01:14:37;23.50;64.30
39751;DHT22;37579;51.074;17.004;2022-11-15T01:17:21;23.50;65.00
39751;DHT22;37579;51.074;17.004;2022-11-15T01:20:05;23.50;64.30
39751;DHT22;37579;51.074;17.004;2022-11-15T01:22:50;23.50;64.30
39751;DHT22;37579;51.074;17.004;2022-11-15T01:25:34;23.50;64.90
39751;DHT22;37579;51.074;17.004;2022-11-15T01:28:19;23.50;64.30
39751;DHT22;37579;51.074;17.004;2022-11-15T01:31:06;23.40;64.40
39751;DHT22;37579;51.074;17.004;2022-11-15T01:33:50;23.40;64.40
39751;DHT22;37579;51.074;17.004;2022-11-15T01:36:35;23.40;64.40
39751;DHT22;37579;51.074;17.004;2022-11-15T01:39:19;23.40;64.40
39751;DHT22;37579;51.074;17.004;2022-11-15T01:42:03;23.50;64.40
39751;DHT22;37579;51.074;17.004;2022-11-15T01:44:49;23.40;64.30
39751;DHT22;37579;51.074;17.004;2022-11-15T01:47:40;23.40;64.40
39751;DHT22;37579;51.074;17.004;2022-11-15T01:50:30;23.40;64.40
39751;DHT22;37579;51.074;17.004;2022-11-15T01:53:16;23.40;64.30
39751;DHT22;37579;51.074;17.004;2022-11-15T01:56:05;23.40;64.30
39751;DHT22;37579;51.074;17.004;2022-11-15T01:58:51;23.40;64.30
39751;DHT22;37579;51.074;17.004;2022-11-15T02:01:36;23.40;64.30
39751;DHT22;37579;51.074;17.004;2022-11-15T02:04:43;23.40;64.30
39751;DHT22;37579;51.074;17.004;2022-11-15T02:07:29;23.40;64.30
39751;DHT22;37579;51.074;17.004;2022-11-15T02:10:20;23.40;64.30
39751;DHT22;37579;51.074;17.004;2022-11-15T02:13:05;23.40;64.40
39751;DHT22;37579;51.074;17.004;2022-11-15T02:34:35;23.40;64.30
39751;DHT22;37579;51.074;17.004;2022-11-15T02:37:45;23.30;64.30
39751;DHT22;37579;51.074;17.004;2022-11-15T02:48:21;23.30;64.30
39751;DHT22;37579;51.074;17.004;2022-11-15T02:51:06;23.30;64.30
39751;DHT22;37579;51.074;17.004;2022-11-15T02:53:51;23.30;64.40
39751;DHT22;37579;51.074;17.004;2022-11-15T02:56:35;23.30;64.30
39751;DHT22;37579;51.074;17.004;2022-11-15T03:12:18;23.30;64.20
39751;DHT22;37579;51.074;17.004;2022-11-15T03:18:19;23.30;64.20
39751;DHT22;37579;51.074;17.004;2022-11-15T03:21:06;23.30;64.30
39751;DHT22;37579;51.074;17.004;2022-11-15T03:23:52;23.20;64.20
39751;DHT22;37579;51.074;17.004;2022-11-15T03:26:40;23.20;64.20
39751;DHT22;37579;51.074;17.004;2022-11-15T03:29:32;23.20;64.20
39751;DHT22;37579;51.074;17.004;2022-11-15T03:32:39;23.20;64.20
39751;DHT22;37579;51.074;17.004;2022-11-15T03:35:29;23.20;64.10
39751;DHT22;37579;51.074;17.004;2022-11-15T03:38:22;23.20;64.20
39751;DHT22;37579;51.074;17.004;2022-11-15T03:41:25;23.20;64.20
39751;DHT22;37579;51.074;17.004;2022-11-15T03:44:35;23.20;64.10
39751;DHT22;37579;51.074;17.004;2022-11-15T03:47:38;23.20;64.10
39751;DHT22;37579;51.074;17.004;2022-11-15T03:50:24;23.20;64.20
39751;DHT22;37579;51.074;17.004;2022-11-15T03:53:10;23.20;64.10
39751;DHT22;37579;51.074;17.004;2022-11-15T03:55:54;23.20;64.20
39751;DHT22;37579;51.074;17.004;2022-11-15T03:58:38;23.20;64.20
39751;DHT22;37579;51.074;17.004;2022-11-15T04:01:22;23.20;64.10
39751;DHT22;37579;51.074;17.004;2022-11-15T04:04:06;23.20;64.10
39751;DHT22;37579;51.074;17.004;2022-11-15T04:06:50;23.20;64.00
39751;DHT22;37579;51.074;17.004;2022-11-15T04:09:35;23.20;64.10
39751;DHT22;37579;51.074;17.004;2022-11-15T04:12:42;23.20;64.10
39751;DHT22;37579;51.074;17.004;2022-11-15T04:15:27;23.20;64.10
39751;DHT22;37579;51.074;17.004;2022-11-15T04:18:13;23.20;64.00
39751;DHT22;37579;51.074;17.004;2022-11-15T04:20:57;23.20;64.00
39751;DHT22;37579;51.074;17.004;2022-11-15T04:24:00;23.20;63.90
39751;DHT22;37579;51.074;17.004;2022-11-15T04:26:56;23.20;63.90
39751;DHT22;37579;51.074;17.004;2022-11-15T04:29:41;23.20;63.90
39751;DHT22;37579;51.074;17.004;2022-11-15T04:32:25;23.20;64.00
39751;DHT22;37579;51.074;17.004;2022-11-15T04:35:09;23.20;64.00
39751;DHT22;37579;51.074;17.004;2022-11-15T04:37:53;23.20;64.00
39751;DHT22;37579;51.074;17.004;2022-11-15T04:40:38;23.10;64.00
39751;DHT22;37579;51.074;17.004;2022-11-15T04:43:22;23.20;64.00
39751;DHT22;37579;51.074;17.004;2022-11-15T04:46:07;23.20;63.90
39751;DHT22;37579;51.074;17.004;2022-11-15T04:48:51;23.20;63.90
39751;DHT22;37579;51.074;17.004;2022-11-15T04:51:36;23.10;64.00
39751;DHT22;37579;51.074;17.004;2022-11-15T04:54:20;23.10;64.00
39751;DHT22;37579;51.074;17.004;2022-11-15T04:57:04;23.10;64.00
39751;DHT22;37579;51.074;17.004;2022-11-15T04:59:48;23.10;64.00
39751;DHT22;37579;51.074;17.004;2022-11-15T05:02:32;23.10;64.00
39751;DHT22;37579;51.074;17.004;2022-11-15T05:05:36;23.10;64.00
39751;DHT22;37579;51.074;17.004;2022-11-15T05:08:20;23.10;64.10
39751;DHT22;37579;51.074;17.004;2022-11-15T05:11:04;23.20;63.90
39751;DHT22;37579;51.074;17.004;2022-11-15T05:13:48;23.10;64.00
39751;DHT22;37579;51.074;17.004;2022-11-15T05:16:33;23.10;63.90
39751;DHT22;37579;51.074;17.004;2022-11-15T05:19:18;23.30;63.30
39751;DHT22;37579;51.074;17.004;2022-11-15T05:22:02;23.40;62.70
39751;DHT22;37579;51.074;17.004;2022-11-15T05:24:46;23.50;62.70
39751;DHT22;37579;51.074;17.004;2022-11-15T05:27:30;23.50;62.40
39751;DHT22;37579;51.074;17.004;2022-11-15T05:30:15;23.50;62.40
39751;DHT22;37579;51.074;17.004;2022-11-15T05:33:00;23.50;62.30
39751;DHT22;37579;51.074;17.004;2022-11-15T05:35:50;23.60;62.10
39751;DHT22;37579;51.074;17.004;2022-11-15T05:38:37;23.60;62.00
39751;DHT22;37579;51.074;17.004;2022-11-15T05:41:47;23.60;62.00
39751;DHT22;37579;51.074;17.004;2022-11-15T05:44:31;23.60;61.90
39751;DHT22;37579;51.074;17.004;2022-11-15T05:47:24;23.60;61.70
39751;DHT22;37579;51.074;17.004;2022-11-15T05:50:12;23.70;61.70
39751;DHT22;37579;51.074;17.004;2022-11-15T05:52:58;23.70;61.50
39751;DHT22;37579;51.074;17.004;2022-11-15T05:55:42;23.70;61.50
39751;DHT22;37579;51.074;17.004;2022-11-15T05:58:27;23.80;61.50
39751;DHT22;37579;51.074;17.004;2022-11-15T06:01:11;23.70;61.40
39751;DHT22;37579;51.074;17.004;2022-11-15T06:03:55;23.80;61.30
39751;DHT22;37579;51.074;17.004;2022-11-15T06:06:39;23.80;61.30
39751;DHT22;37579;51.074;17.004;2022-11-15T06:09:24;23.80;61.30
39751;DHT22;37579;51.074;17.004;2022-11-15T06:12:08;23.90;61.20
39751;DHT22;37579;51.074;17.004;2022-11-15T06:14:52;23.80;61.20
39751;DHT22;37579;51.074;17.004;2022-11-15T06:17:36;23.90;61.20
39751;DHT22;37579;51.074;17.004;2022-11-15T06:20:20;23.90;61.20
39751;DHT22;37579;51.074;17.004;2022-11-15T06:23:05;23.80;61.30
39751;DHT22;37579;51.074;17.004;2022-11-15T06:25:49;23.90;61.30
39751;DHT22;37579;51.074;17.004;2022-11-15T06:28:33;23.90;61.40
39751;DHT22;37579;51.074;17.004;2022-11-15T06:31:18;23.80;61.60
39751;DHT22;37579;51.074;17.004;2022-11-15T06:34:02;23.80;61.70
39751;DHT22;37579;51.074;17.004;2022-11-15T06:36:46;23.80;61.90
39751;DHT22;37579;51.074;17.004;2022-11-15T06:39:30;23.90;62.10
39751;DHT22;37579;51.074;17.004;2022-11-15T06:42:14;24.00;62.10
39751;DHT22;37579;51.074;17.004;2022-11-15T06:44:58;24.00;62.00
39751;DHT22;37579;51.074;17.004;2022-11-15T06:47:46;24.00;62.00
39751;DHT22;37579;51.074;17.004;2022-11-15T06:50:31;24.00;62.00
39751;DHT22;37579;51.074;17.004;2022-11-15T06:53:15;24.00;62.20
39751;DHT22;37579;51.074;17.004;2022-11-15T06:56:00;24.00;62.30
39751;DHT22;37579;51.074;17.004;2022-11-15T06:58:45;24.00;61.70
39751;DHT22;37579;51.074;17.004;2022-11-15T07:01:29;24.00;61.30
39751;DHT22;37579;51.074;17.004;2022-11-15T07:04:13;24.00;61.50
39751;DHT22;37579;51.074;17.004;2022-11-15T07:06:57;24.00;61.60
39751;DHT22;37579;51.074;17.004;2022-11-15T07:09:41;24.00;61.40
39751;DHT22;37579;51.074;17.004;2022-11-15T07:12:25;24.00;61.20
39751;DHT22;37579;51.074;17.004;2022-11-15T07:15:10;24.00;61.10
39751;DHT22;37579;51.074;17.004;2022-11-15T07:17:54;24.00;61.20
39751;DHT22;37579;51.074;17.004;2022-11-15T07:20:38;24.00;61.10
39751;DHT22;37579;51.074;17.004;2022-11-15T07:23:23;24.10;61.10
39751;DHT22;37579;51.074;17.004;2022-11-15T07:26:08;24.20;62.40
39751;DHT22;37579;51.074;17.004;2022-11-15T07:28:52;24.30;61.40
39751;DHT22;37579;51.074;17.004;2022-11-15T07:31:37;24.20;60.80
39751;DHT22;37579;51.074;17.004;2022-11-15T07:34:22;24.30;60.90
39751;DHT22;37579;51.074;17.004;2022-11-15T07:37:07;24.20;60.80
39751;DHT22;37579;51.074;17.004;2022-11-15T07:39:52;24.30;60.70
39751;DHT22;37579;51.074;17.004;2022-11-15T07:42:36;24.30;60.70
39751;DHT22;37579;51.074;17.004;2022-11-15T07:45:42;24.40;60.70
39751;DHT22;37579;51.074;17.004;2022-11-15T07:48:26;24.40;60.60
39751;DHT22;37579;51.074;17.004;2022-11-15T07:51:15;24.40;60.50
39751;DHT22;37579;51.074;17.004;2022-11-15T07:53:59;24.30;60.30
39751;DHT22;37579;51.074;17.004;2022-11-15T07:56:44;24.40;60.50
39751;DHT22;37579;51.074;17.004;2022-11-15T07:59:28;24.40;60.50
39751;DHT22;37579;51.074;17.004;2022-11-15T08:02:12;24.40;60.50
39751;DHT22;37579;51.074;17.004;2022-11-15T08:04:56;24.40;60.50
39751;DHT22;37579;51.074;17.004;2022-11-15T08:07:41;24.40;60.60
39751;DHT22;37579;51.074;17.004;2022-11-15T08:10:26;24.40;60.70
39751;DHT22;37579;51.074;17.004;2022-11-15T08:13:12;24.40;60.70
39751;DHT22;37579;51.074;17.004;2022-11-15T08:16:01;24.40;60.80
39751;DHT22;37579;51.074;17.004;2022-11-15T08:18:45;24.40;61.00
39751;DHT22;37579;51.074;17.004;2022-11-15T08:21:30;24.40;60.90
39751;DHT22;37579;51.074;17.004;2022-11-15T08:24:15;24.40;61.00
39751;DHT22;37579;51.074;17.004;2022-11-15T08:26:59;24.40;60.90
39751;DHT22;37579;51.074;17.004;2022-11-15T08:29:44;24.40;60.90
39751;DHT22;37579;51.074;17.004;2022-11-15T08:32:30;24.40;61.00
39751;DHT22;37579;51.074;17.004;2022-11-15T08:35:14;24.30;61.00
39751;DHT22;37579;51.074;17.004;2022-11-15T08:37:59;24.40;61.20
39751;DHT22;37579;51.074;17.004;2022-11-15T08:40:43;24.40;61.10
39751;DHT22;37579;51.074;17.004;2022-11-15T08:43:27;24.40;61.10
39751;DHT22;37579;51.074;17.004;2022-11-15T08:46:12;24.40;61.20
39751;DHT22;37579;51.074;17.004;2022-11-15T08:48:57;24.40;61.20
39751;DHT22;37579;51.074;17.004;2022-11-15T08:51:42;24.50;61.50
39751;DHT22;37579;51.074;17.004;2022-11-15T08:54:26;24.50;61.60
39751;DHT22;37579;51.074;17.004;2022-11-15T08:57:10;24.40;61.80
39751;DHT22;37579;51.074;17.004;2022-11-15T08:59:55;24.40;61.90
39751;DHT22;37579;51.074;17.004;2022-11-15T09:02:39;24.50;61.90
39751;DHT22;37579;51.074;17.004;2022-11-15T09:05:23;24.50;61.90
39751;DHT22;37579;51.074;17.004;2022-11-15T09:08:07;24.40;61.90
39751;DHT22;37579;51.074;17.004;2022-11-15T09:10:51;24.40;62.10
39751;DHT22;37579;51.074;17.004;2022-11-15T09:13:36;24.40;62.90
39751;DHT22;37579;51.074;17.004;2022-11-15T09:16:21;24.40;62.10
39751;DHT22;37579;51.074;17.004;2022-11-15T09:19:05;24.40;62.30
39751;DHT22;37579;51.074;17.004;2022-11-15T09:21:50;24.50;62.50
39751;DHT22;37579;51.074;17.004;2022-11-15T09:24:35;24.40;62.50
39751;DHT22;37579;51.074;17.004;2022-11-15T09:27:19;24.40;62.50
39751;DHT22;37579;51.074;17.004;2022-11-15T09:30:03;24.40;62.40
39751;DHT22;37579;51.074;17.004;2022-11-15T09:32:48;24.40;62.20
39751;DHT22;37579;51.074;17.004;2022-11-15T09:35:32;24.40;62.20
39751;DHT22;37579;51.074;17.004;2022-11-15T09:38:17;24.40;62.40
39751;DHT22;37579;51.074;17.004;2022-11-15T09:49:40;24.30;62.30
39751;DHT22;37579;51.074;17.004;2022-11-15T09:52:29;24.30;62.40
39751;DHT22;37579;51.074;17.004;2022-11-15T09:54:54;24.30;62.20
39751;DHT22;37579;51.074;17.004;2022-11-15T09:57:38;24.30;62.10
39751;DHT22;37579;51.074;17.004;2022-11-15T10:00:44;24.30;62.10
39751;DHT22;37579;51.074;17.004;2022-11-15T10:03:16;24.30;62.00
39751;DHT22;37579;51.074;17.004;2022-11-15T10:05:47;24.20;62.00
39751;DHT22;37579;51.074;17.004;2022-11-15T10:08:48;24.30;61.80
39751;DHT22;37579;51.074;17.004;2022-11-15T10:11:22;24.30;61.80
39751;DHT22;37579;51.074;17.004;2022-11-15T10:13:50;24.20;62.60
39751;DHT22;37579;51.074;17.004;2022-11-15T10:19:34;24.00;62.70
39751;DHT22;37579;51.074;17.004;2022-11-15T10:24:43;23.90;63.10
39751;DHT22;37579;51.074;17.004;2022-11-15T10:27:17;23.90;63.30
39751;DHT22;37579;51.074;17.004;2022-11-15T10:29:48;23.90;63.60
39751;DHT22;37579;51.074;17.004;2022-11-15T10:32:18;23.90;63.70
39751;DHT22;37579;51.074;17.004;2022-11-15T10:34:45;23.90;63.50
39751;DHT22;37579;51.074;17.004;2022-11-15T10:37:10;23.90;63.60
39751;DHT22;37579;51.074;17.004;2022-11-15T10:39:36;24.00;63.50
39751;DHT22;37579;51.074;17.004;2022-11-15T10:42:16;24.00;63.50
39751;DHT22;37579;51.074;17.004;2022-11-15T10:44:44;24.00;63.50
39751;DHT22;37579;51.074;17.004;2022-11-15T10:47:36;24.00;63.50
39751;DHT22;37579;51.074;17.004;2022-11-15T10:50:24;24.00;63.60
39751;DHT22;37579;51.074;17.004;2022-11-15T10:52:51;23.90;63.60
39751;DHT22;37579;51.074;17.004;2022-11-15T10:57:50;23.90;64.00
39751;DHT22;37579;51.074;17.004;2022-11-15T11:03:08;24.00;64.30
39751;DHT22;37579;51.074;17.004;2022-11-15T11:05:46;23.90;64.30
39751;DHT22;37579;51.074;17.004;2022-11-15T11:11:00;23.80;61.60
39751;DHT22;37579;51.074;17.004;2022-11-15T11:13:28;23.80;62.60
39751;DHT22;37579;51.074;17.004;2022-11-15T11:19:15;23.80;62.80
39751;DHT22;37579;51.074;17.004;2022-11-15T11:24:41;23.80;62.90
39751;DHT22;37579;51.074;17.004;2022-11-15T11:27:31;23.80;62.90
39751;DHT22;37579;51.074;17.004;2022-11-15T11:30:13;23.80;62.70
39751;DHT22;37579;51.074;17.004;2022-11-15T11:38:31;23.80;62.70
39751;DHT22;37579;51.074;17.004;2022-11-15T11:41:15;23.80;62.70
39751;DHT22;37579;51.074;17.004;2022-11-15T11:46:43;23.90;62.80
39751;DHT22;37579;51.074;17.004;2022-11-15T11:50:00;23.90;62.90
39751;DHT22;37579;51.074;17.004;2022-11-15T11:52:14;23.90;63.00
39751;DHT22;37579;51.074;17.004;2022-11-15T11:57:34;23.80;63.80
39751;DHT22;37579;51.074;17.004;2022-11-15T12:00:38;23.80;64.00
39751;DHT22;37579;51.074;17.004;2022-11-15T12:05:44;23.80;65.20
39751;DHT22;37579;51.074;17.004;2022-11-15T12:08:31;23.80;65.70
39751;DHT22;37579;51.074;17.004;2022-11-15T12:11:14;24.00;77.60
39751;DHT22;37579;51.074;17.004;2022-11-15T12:13:43;23.90;66.00
39751;DHT22;37579;51.074;17.004;2022-11-15T12:18:39;23.90;66.20
39751;DHT22;37579;51.074;17.004;2022-11-15T12:21:22;23.90;66.40
39751;DHT22;37579;51.074;17.004;2022-11-15T12:23:53;24.00;66.60
39751;DHT22;37579;51.074;17.004;2022-11-15T12:26:29;23.90;66.80
39751;DHT22;37579;51.074;17.004;2022-11-15T12:29:01;23.90;67.70
39751;DHT22;37579;51.074;17.004;2022-11-15T12:31:38;24.00;67.90
39751;DHT22;37579;51.074;17.004;2022-11-15T12:36:49;24.00;68.10
39751;DHT22;37579;51.074;17.004;2022-11-15T12:39:16;24.00;69.20
39751;DHT22;37579;51.074;17.004;2022-11-15T12:41:44;24.00;79.10
39751;DHT22;37579;51.074;17.004;2022-11-15T12:59:54;24.00;66.60
39751;DHT22;37579;51.074;17.004;2022-11-15T13:02:39;23.10;50.10
39751;DHT22;37579;51.074;17.004;2022-11-15T13:22:45;23.20;56.40
39751;DHT22;37579;51.074;17.004;2022-11-15T13:28:31;23.30;56.20
39751;DHT22;37579;51.074;17.004;2022-11-15T13:30:58;23.40;56.10
39751;DHT22;37579;51.074;17.004;2022-11-15T13:33:34;23.50;56.30
39751;DHT22;37579;51.074;17.004;2022-11-15T13:36:20;23.60;56.40
39751;DHT22;37579;51.074;17.004;2022-11-15T13:41:52;23.80;56.40
39751;DHT22;37579;51.074;17.004;2022-11-15T13:44:24;23.80;56.40
39751;DHT22;37579;51.074;17.004;2022-11-15T13:47:13;23.80;56.50
39751;DHT22;37579;51.074;17.004;2022-11-15T13:49:40;23.90;56.60
39751;DHT22;37579;51.074;17.004;2022-11-15T13:52:10;23.90;56.70
39751;DHT22;37579;51.074;17.004;2022-11-15T13:57:45;23.90;56.90
39751;DHT22;37579;51.074;17.004;2022-11-15T14:02:57;23.90;57.00
39751;DHT22;37579;51.074;17.004;2022-11-15T14:05:24;23.90;57.10
39751;DHT22;37579;51.074;17.004;2022-11-15T14:08:23;23.00;48.30
39751;DHT22;37579;51.074;17.004;2022-11-15T14:11:18;21.70;49.10
39751;DHT22;37579;51.074;17.004;2022-11-15T14:16:35;21.40;50.80
39751;DHT22;37579;51.074;17.004;2022-11-15T14:19:03;22.20;51.90
39751;DHT22;37579;51.074;17.004;2022-11-15T14:21:29;22.70;51.70
39751;DHT22;37579;51.074;17.004;2022-11-15T14:24:14;22.90;51.60
39751;DHT22;37579;51.074;17.004;2022-11-15T14:26:40;23.10;51.70
39751;DHT22;37579;51.074;17.004;2022-11-15T14:31:48;23.30;52.10
39751;DHT22;37579;51.074;17.004;2022-11-15T14:34:14;23.30;52.30
39751;DHT22;37579;51.074;17.004;2022-11-15T14:36:39;23.40;52.50
39751;DHT22;37579;51.074;17.004;2022-11-15T14:39:05;23.40;52.80
39751;DHT22;37579;51.074;17.004;2022-11-15T14:41:35;23.40;52.90
39751;DHT22;37579;51.074;17.004;2022-11-15T14:44:03;23.40;53.30
39751;DHT22;37579;51.074;17.004;2022-11-15T14:46:29;23.50;53.70
39751;DHT22;37579;51.074;17.004;2022-11-15T14:48:55;23.50;53.90
39751;DHT22;37579;51.074;17.004;2022-11-15T14:51:21;23.50;54.20
39751;DHT22;37579;51.074;17.004;2022-11-15T14:53:47;23.70;54.60
39751;DHT22;37579;51.074;17.004;2022-11-15T14:56:14;23.60;54.70
39751;DHT22;37579;51.074;17.004;2022-11-15T14:58:40;23.70;54.90
39751;DHT22;37579;51.074;17.004;2022-11-15T15:01:23;23.60;55.00
39751;DHT22;37579;51.074;17.004;2022-11-15T15:03:49;23.70;55.20
39751;DHT22;37579;51.074;17.004;2022-11-15T15:06:18;23.70;55.40
39751;DHT22;37579;51.074;17.004;2022-11-15T15:08:44;23.70;55.60
39751;DHT22;37579;51.074;17.004;2022-11-15T15:11:16;23.70;55.70
39751;DHT22;37579;51.074;17.004;2022-11-15T15:13:42;23.80;55.90
39751;DHT22;37579;51.074;17.004;2022-11-15T15:16:08;23.80;56.00
39751;DHT22;37579;51.074;17.004;2022-11-15T15:18:34;23.80;56.10
39751;DHT22;37579;51.074;17.004;2022-11-15T15:21:00;23.80;56.20
39751;DHT22;37579;51.074;17.004;2022-11-15T15:23:32;23.80;56.30
39751;DHT22;37579;51.074;17.004;2022-11-15T15:25:58;23.80;56.40
39751;DHT22;37579;51.074;17.004;2022-11-15T15:28:24;23.80;56.50
39751;DHT22;37579;51.074;17.004;2022-11-15T15:30:50;23.80;56.70
39751;DHT22;37579;51.074;17.004;2022-11-15T15:33:16;23.80;56.80
39751;DHT22;37579;51.074;17.004;2022-11-15T15:35:42;23.80;56.90
39751;DHT22;37579;51.074;17.004;2022-11-15T15:38:13;23.80;56.90
39751;DHT22;37579;51.074;17.004;2022-11-15T15:40:40;23.80;57.00
39751;DHT22;37579;51.074;17.004;2022-11-15T15:43:06;23.80;57.10
39751;DHT22;37579;51.074;17.004;2022-11-15T15:45:37;23.80;57.20
39751;DHT22;37579;51.074;17.004;2022-11-15T15:48:03;23.80;57.30
39751;DHT22;37579;51.074;17.004;2022-11-15T15:50:32;23.80;57.30
39751;DHT22;37579;51.074;17.004;2022-11-15T15:53:00;23.90;57.30
39751;DHT22;37579;51.074;17.004;2022-11-15T15:55:26;24.00;57.30
39751;DHT22;37579;51.074;17.004;2022-11-15T15:57:53;24.00;57.10
39751;DHT22;37579;51.074;17.004;2022-11-15T16:00:19;24.10;57.10
39751;DHT22;37579;51.074;17.004;2022-11-15T16:02:46;24.10;57.00
39751;DHT22;37579;51.074;17.004;2022-11-15T16:05:12;24.10;56.90
39751;DHT22;37579;51.074;17.004;2022-11-15T16:07:38;24.20;57.60
39751;DHT22;37579;51.074;17.004;2022-11-15T16:10:24;24.20;56.90
39751;DHT22;37579;51.074;17.004;2022-11-15T16:12:51;24.20;56.80
39751;DHT22;37579;51.074;17.004;2022-11-15T16:15:17;24.30;56.80
39751;DHT22;37579;51.074;17.004;2022-11-15T16:18:04;24.30;56.80
39751;DHT22;37579;51.074;17.004;2022-11-15T16:23:07;24.30;56.70
39751;DHT22;37579;51.074;17.004;2022-11-15T16:25:45;24.30;56.70
39751;DHT22;37579;51.074;17.004;2022-11-15T16:28:26;24.30;56.80
39751;DHT22;37579;51.074;17.004;2022-11-15T16:31:09;24.30;57.10
39751;DHT22;37579;51.074;17.004;2022-11-15T16:33:36;24.30;53.90
39751;DHT22;37579;51.074;17.004;2022-11-15T16:36:03;24.00;55.90
39751;DHT22;37579;51.074;17.004;2022-11-15T16:38:29;24.10;56.40
39751;DHT22;37579;51.074;17.004;2022-11-15T16:40:55;24.20;56.60
39751;DHT22;37579;51.074;17.004;2022-11-15T16:43:21;24.20;56.50
39751;DHT22;37579;51.074;17.004;2022-11-15T16:45:48;24.30;56.60
39751;DHT22;37579;51.074;17.004;2022-11-15T16:48:27;24.30;56.90
39751;DHT22;37579;51.074;17.004;2022-11-15T16:50:57;24.30;56.80
39751;DHT22;37579;51.074;17.004;2022-11-15T16:53:26;24.30;56.90
39751;DHT22;37579;51.074;17.004;2022-11-15T16:55:53;24.30;57.00
39751;DHT22;37579;51.074;17.004;2022-11-15T16:58:19;24.30;57.00
39751;DHT22;37579;51.074;17.004;2022-11-15T17:00:50;24.30;57.10
39751;DHT22;37579;51.074;17.004;2022-11-15T17:03:16;24.20;57.10
39751;DHT22;37579;51.074;17.004;2022-11-15T17:05:42;24.20;57.10
39751;DHT22;37579;51.074;17.004;2022-11-15T17:08:07;24.20;57.10
39751;DHT22;37579;51.074;17.004;2022-11-15T17:10:33;24.20;57.20
39751;DHT22;37579;51.074;17.004;2022-11-15T17:12:59;24.20;57.30
39751;DHT22;37579;51.074;17.004;2022-11-15T17:15:24;24.10;57.30
39751;DHT22;37579;51.074;17.004;2022-11-15T17:17:52;24.10;57.50
39751;DHT22;37579;51.074;17.004;2022-11-15T17:20:19;24.10;57.70
39751;DHT22;37579;51.074;17.004;2022-11-15T17:22:46;24.10;57.60
39751;DHT22;37579;51.074;17.004;2022-11-15T17:25:12;24.10;57.90
39751;DHT22;37579;51.074;17.004;2022-11-15T17:27:38;24.10;57.80
39751;DHT22;37579;51.074;17.004;2022-11-15T17:30:05;24.10;57.70
39751;DHT22;37579;51.074;17.004;2022-11-15T17:32:31;24.10;57.60
39751;DHT22;37579;51.074;17.004;2022-11-15T17:34:57;24.10;57.60
39751;DHT22;37579;51.074;17.004;2022-11-15T17:37:23;24.10;57.60
39751;DHT22;37579;51.074;17.004;2022-11-15T17:39:48;24.20;57.70
39751;DHT22;37579;51.074;17.004;2022-11-15T17:42:14;24.10;57.60
39751;DHT22;37579;51.074;17.004;2022-11-15T17:44:40;24.20;57.70
39751;DHT22;37579;51.074;17.004;2022-11-15T17:47:05;24.20;57.70
39751;DHT22;37579;51.074;17.004;2022-11-15T17:49:32;24.10;57.80
39751;DHT22;37579;51.074;17.004;2022-11-15T17:52:02;24.20;57.80
39751;DHT22;37579;51.074;17.004;2022-11-15T17:54:28;24.10;57.80
39751;DHT22;37579;51.074;17.004;2022-11-15T17:56:54;24.10;57.90
39751;DHT22;37579;51.074;17.004;2022-11-15T17:59:19;24.10;58.00
39751;DHT22;37579;51.074;17.004;2022-11-15T18:01:45;24.00;58.40
39751;DHT22;37579;51.074;17.004;2022-11-15T18:04:11;23.90;58.50
39751;DHT22;37579;51.074;17.004;2022-11-15T18:06:39;24.00;58.60
39751;DHT22;37579;51.074;17.004;2022-11-15T18:09:05;24.00;58.60
39751;DHT22;37579;51.074;17.004;2022-11-15T18:11:36;24.00;58.40
39751;DHT22;37579;51.074;17.004;2022-11-15T18:14:07;24.00;58.40
39751;DHT22;37579;51.074;17.004;2022-11-15T18:16:35;24.00;58.40
39751;DHT22;37579;51.074;17.004;2022-11-15T18:19:01;24.10;58.50
39751;DHT22;37579;51.074;17.004;2022-11-15T18:21:33;24.10;58.50
39751;DHT22;37579;51.074;17.004;2022-11-15T18:24:01;24.00;58.50
39751;DHT22;37579;51.074;17.004;2022-11-15T18:26:28;24.10;58.50
39751;DHT22;37579;51.074;17.004;2022-11-15T18:28:56;24.10;58.60
39751;DHT22;37579;51.074;17.004;2022-11-15T18:31:24;24.10;58.60
39751;DHT22;37579;51.074;17.004;2022-11-15T18:33:51;24.10;58.60
39751;DHT22;37579;51.074;17.004;2022-11-15T18:36:22;24.10;58.60
39751;DHT22;37579;51.074;17.004;2022-11-15T18:38:56;24.10;58.50
39751;DHT22;37579;51.074;17.004;2022-11-15T18:41:23;24.10;58.30
39751;DHT22;37579;51.074;17.004;2022-11-15T18:43:53;24.10;58.30
39751;DHT22;37579;51.074;17.004;2022-11-15T18:46:21;24.10;58.20
39751;DHT22;37579;51.074;17.004;2022-11-15T18:48:49;24.10;58.00
39751;DHT22;37579;51.074;17.004;2022-11-15T18:51:17;24.10;57.80